Time;durP1;ratioP1;P1;durP2;ratioP2;P2;SDS_P1;SDS_P2;PMS_P1;PMS_P2;Temp;Humidity;BMP_temperature;BMP_pressure;BME280_temperature;BME280_humidity;BME280_pressure;Samples;Min_cycle;Max_cycle;Signal;HPM_P1;HPM_P2
2023/08/22 00:00:11;;;;;;;0.00;0.00;;;23.50;99.90;;;;;;5051083;28;20182;-64
2023/08/22 00:02:36;;;;;;;0.00;0.00;;;23.50;99.90;;;;;;5050838;28;20546;-64
2023/08/22 00:05:02;;;;;;;0.00;0.00;;;23.50;99.90;;;;;;5050993;28;20248;-64
2023/08/22 00:07:28;;;;;;;0.00;0.00;;;23.40;99.90;;;;;;5051014;28;20177;-64
2023/08/22 00:09:53;;;;;;;0.00;0.00;;;23.40;99.90;;;;;;5050953;28;20170;-64
2023/08/22 00:12:19;;;;;;;0.00;0.00;;;23.40;99.90;;;;;;5050997;28;20570;-64
2023/08/22 00:14:45;;;;;;;0.15;0.15;;;23.40;99.90;;;;;;5051060;28;20208;-64
2023/08/22 00:17:11;;;;;;;0.00;0.00;;;23.40;99.90;;;;;;5050827;28;20173;-64
2023/08/22 00:19:38;;;;;;;0.00;0.00;;;23.40;99.90;;;;;;5050760;28;20193;-64
2023/08/22 00:22:04;;;;;;;0.00;0.00;;;23.40;99.90;;;;;;5050723;28;20586;-64
2023/08/22 00:24:30;;;;;;;0.00;0.00;;;23.40;99.90;;;;;;5050839;28;20185;-64
2023/08/22 00:26:55;;;;;;;0.00;0.00;;;23.40;99.90;;;;;;5050813;28;20177;-64
2023/08/22 00:29:21;;;;;;;0.00;0.00;;;23.40;99.90;;;;;;5053037;28;20177;-64
2023/08/22 00:31:46;;;;;;;0.00;0.00;;;23.40;99.90;;;;;;5054969;28;20719;-63
2023/08/22 00:34:12;;;;;;;0.00;0.00;;;23.40;99.90;;;;;;5054332;28;20550;-64
2023/08/22 00:36:38;;;;;;;0.10;0.10;;;23.30;99.90;;;;;;5054791;28;20181;-64
2023/08/22 00:39:03;;;;;;;0.00;0.00;;;23.40;99.90;;;;;;5054641;28;20208;-64
2023/08/22 00:41:29;;;;;;;0.00;0.00;;;23.40;99.90;;;;;;5054849;28;20173;-64
2023/08/22 00:43:55;;;;;;;0.00;0.00;;;23.40;99.90;;;;;;5054562;28;20169;-64
2023/08/22 00:46:22;;;;;;;0.00;0.00;;;23.40;99.90;;;;;;5054827;28;20228;-64
2023/08/22 00:48:48;;;;;;;0.10;0.10;;;23.40;99.90;;;;;;5054567;28;20260;-64
2023/08/22 00:51:15;;;;;;;0.00;0.00;;;23.40;99.90;;;;;;5054285;28;20581;-64
2023/08/22 00:53:40;;;;;;;0.00;0.00;;;23.50;99.90;;;;;;5054175;28;20217;-64
2023/08/22 00:56:06;;;;;;;0.00;0.00;;;23.40;99.90;;;;;;5054379;28;20633;-64
2023/08/22 00:58:32;;;;;;;0.00;0.00;;;23.40;99.90;;;;;;5054400;28;20582;-64
2023/08/22 01:00:57;;;;;;;0.00;0.00;;;23.40;99.90;;;;;;5054338;28;20192;-64
2023/08/22 01:03:23;;;;;;;0.00;0.00;;;23.40;99.90;;;;;;5054431;28;20182;-64
2023/08/22 01:05:55;;;;;;;0.00;0.00;;;23.40;99.90;;;;;;5054431;28;20169;-64
2023/08/22 01:08:39;;;;;;;0.10;0.10;;;23.40;99.90;;;;;;5054370;28;20169;-64
2023/08/22 01:11:22;;;;;;;0.00;0.00;;;23.40;99.90;;;;;;5054220;28;20173;-64
2023/08/22 01:13:51;;;;;;;0.03;0.03;;;23.40;99.90;;;;;;5054241;28;20221;-64
2023/08/22 01:16:18;;;;;;;0.00;0.00;;;23.40;99.90;;;;;;5054361;28;20197;-64
2023/08/22 01:18:44;;;;;;;0.00;0.00;;;23.40;99.90;;;;;;5054206;28;20185;-64
2023/08/22 01:21:18;;;;;;;0.00;0.00;;;23.40;99.90;;;;;;5054036;28;20184;-64
2023/08/22 01:23:44;;;;;;;0.00;0.00;;;23.40;99.90;;;;;;5054184;28;20207;-64
2023/08/22 01:26:09;;;;;;;0.00;0.00;;;23.40;99.90;;;;;;5053965;28;20178;-64
2023/08/22 01:28:44;;;;;;;0.00;0.00;;;23.40;99.90;;;;;;5053927;28;20186;-64
2023/08/22 01:31:16;;;;;;;0.00;0.00;;;23.30;99.90;;;;;;5053682;28;20611;-64
2023/08/22 01:34:12;;;;;;;0.00;0.00;;;23.30;99.90;;;;;;5053827;28;20266;-64
2023/08/22 01:36:38;;;;;;;0.00;0.00;;;23.30;99.90;;;;;;5053862;28;20212;-64
2023/08/22 01:39:07;;;;;;;0.00;0.00;;;23.30;99.90;;;;;;5053507;28;20625;-64
2023/08/22 01:41:33;;;;;;;0.00;0.00;;;23.20;99.90;;;;;;5053662;28;20192;-64
2023/08/22 01:44:00;;;;;;;0.00;0.00;;;23.20;99.90;;;;;;5053679;28;20178;-64
2023/08/22 01:46:25;;;;;;;0.00;0.00;;;23.20;99.90;;;;;;5053737;28;20541;-64
2023/08/22 01:48:51;;;;;;;0.00;0.00;;;23.20;99.90;;;;;;5053570;28;20177;-64
2023/08/22 01:51:16;;;;;;;0.00;0.00;;;23.20;99.90;;;;;;5053377;28;20212;-64
2023/08/22 01:53:42;;;;;;;0.52;0.40;;;23.10;99.90;;;;;;5053415;28;20266;-64
2023/08/22 01:56:07;;;;;;;0.00;0.00;;;23.10;99.90;;;;;;5053482;28;20648;-64
2023/08/22 01:58:33;;;;;;;0.05;0.05;;;23.10;99.90;;;;;;5053389;28;20575;-64
2023/08/22 02:00:58;;;;;;;0.00;0.00;;;23.10;99.90;;;;;;5053330;28;20166;-64
2023/08/22 02:03:24;;;;;;;0.00;0.00;;;23.00;99.90;;;;;;5053347;28;20211;-64
2023/08/22 02:05:49;;;;;;;0.00;0.00;;;23.00;99.90;;;;;;5053203;28;20187;-64
2023/08/22 02:08:15;;;;;;;0.15;0.15;;;23.00;99.90;;;;;;5053080;28;20196;-64
2023/08/22 02:10:41;;;;;;;0.00;0.00;;;22.90;99.90;;;;;;5053184;28;20239;-64
2023/08/22 02:13:06;;;;;;;0.00;0.00;;;22.90;99.90;;;;;;5052950;28;20255;-64
2023/08/22 02:15:32;;;;;;;0.00;0.00;;;22.90;99.90;;;;;;5053212;28;20186;-64
2023/08/22 02:17:57;;;;;;;0.00;0.00;;;22.90;99.90;;;;;;5052985;28;20208;-64
2023/08/22 02:20:23;;;;;;;0.00;0.00;;;22.80;99.90;;;;;;5052999;28;20188;-64
2023/08/22 02:22:48;;;;;;;0.00;0.00;;;22.80;99.90;;;;;;5052980;28;20184;-64
2023/08/22 02:25:14;;;;;;;0.35;0.35;;;22.80;99.90;;;;;;5052558;28;20173;-64
2023/08/22 02:27:40;;;;;;;0.00;0.00;;;22.80;99.90;;;;;;5052994;28;20322;-64
2023/08/22 02:30:07;;;;;;;0.00;0.00;;;22.80;99.90;;;;;;5052700;28;20308;-64
2023/08/22 02:32:33;;;;;;;0.05;0.05;;;22.70;99.90;;;;;;5051411;28;20702;-64
2023/08/22 02:34:58;;;;;;;0.00;0.00;;;22.70;99.90;;;;;;5052698;28;20177;-64
2023/08/22 02:37:24;;;;;;;0.00;0.00;;;22.70;99.90;;;;;;5052691;28;20205;-64
2023/08/22 02:39:49;;;;;;;0.00;0.00;;;22.60;99.90;;;;;;5052738;28;20183;-63
2023/08/22 02:42:15;;;;;;;0.00;0.00;;;22.60;99.90;;;;;;5052489;28;20174;-64
2023/08/22 02:44:40;;;;;;;0.00;0.00;;;22.60;99.90;;;;;;5052617;28;20181;-64
2023/08/22 02:47:06;;;;;;;0.00;0.00;;;22.60;99.90;;;;;;5052534;28;20182;-64
2023/08/22 02:49:31;;;;;;;0.00;0.00;;;22.50;99.90;;;;;;5052881;28;20251;-65
2023/08/22 02:51:57;;;;;;;0.00;0.00;;;22.50;99.90;;;;;;5051884;28;20177;-64
2023/08/22 02:54:22;;;;;;;0.00;0.00;;;22.50;99.90;;;;;;5052415;28;20229;-64
2023/08/22 02:56:48;;;;;;;0.00;0.00;;;22.50;99.90;;;;;;5052356;28;20173;-65
2023/08/22 02:59:14;;;;;;;0.00;0.00;;;22.50;99.90;;;;;;5052382;28;20216;-64
2023/08/22 03:01:39;;;;;;;0.00;0.00;;;22.50;99.90;;;;;;5052374;28;20181;-64
2023/08/22 03:04:05;;;;;;;0.00;0.00;;;22.50;99.90;;;;;;5052311;28;20174;-65
2023/08/22 03:06:31;;;;;;;0.00;0.00;;;22.40;99.90;;;;;;5052370;28;20196;-64
2023/08/22 03:08:56;;;;;;;0.00;0.00;;;22.40;99.90;;;;;;5052240;28;20231;-64
2023/08/22 03:11:22;;;;;;;0.00;0.00;;;22.40;99.90;;;;;;5052219;28;20309;-64
2023/08/22 03:13:47;;;;;;;0.00;0.00;;;22.30;99.90;;;;;;5052116;28;20248;-64
2023/08/22 03:16:13;;;;;;;0.10;0.10;;;22.30;99.90;;;;;;5051816;28;20181;-64
2023/08/22 03:18:38;;;;;;;0.00;0.00;;;22.20;99.90;;;;;;5052025;28;20176;-64
2023/08/22 03:21:04;;;;;;;0.05;0.00;;;22.20;99.90;;;;;;5051960;28;20201;-64
2023/08/22 03:23:30;;;;;;;0.00;0.00;;;22.20;99.90;;;;;;5051923;28;20663;-64
2023/08/22 03:25:59;;;;;;;0.00;0.00;;;22.20;99.90;;;;;;5051631;28;20181;-64
2023/08/22 03:28:26;;;;;;;0.03;0.03;;;22.20;99.90;;;;;;5051903;28;20199;-64
2023/08/22 03:30:59;;;;;;;0.00;0.00;;;22.10;99.90;;;;;;5051572;28;20232;-64
2023/08/22 03:33:25;;;;;;;0.00;0.00;;;22.10;99.90;;;;;;5051521;28;20205;-64
2023/08/22 03:35:53;;;;;;;0.22;0.22;;;22.10;99.90;;;;;;5051533;28;20177;-64
2023/08/22 03:38:19;;;;;;;0.00;0.00;;;22.10;99.90;;;;;;5051609;28;20169;-64
2023/08/22 03:40:44;;;;;;;0.00;0.00;;;22.10;99.90;;;;;;5051497;28;20180;-64
2023/08/22 03:43:10;;;;;;;0.28;0.10;;;22.10;99.90;;;;;;5051347;28;20162;-64
2023/08/22 03:45:35;;;;;;;0.00;0.00;;;22.10;99.90;;;;;;5051385;28;20174;-64
2023/08/22 03:48:03;;;;;;;0.00;0.00;;;22.10;99.90;;;;;;5051316;28;20260;-64
2023/08/22 03:50:30;;;;;;;0.00;0.00;;;22.10;99.90;;;;;;5051456;28;20223;-64
2023/08/22 03:52:55;;;;;;;0.00;0.00;;;22.00;99.90;;;;;;5051067;28;20326;-64
2023/08/22 03:55:21;;;;;;;0.00;0.00;;;22.00;99.90;;;;;;5051468;28;20280;-64
2023/08/22 03:57:47;;;;;;;0.00;0.00;;;22.00;99.90;;;;;;5051372;28;20704;-64
2023/08/22 04:00:13;;;;;;;0.10;0.10;;;22.00;99.90;;;;;;5050954;28;20178;-64
2023/08/22 04:02:38;;;;;;;0.00;0.00;;;22.00;99.90;;;;;;5050696;28;20181;-64
2023/08/22 04:05:04;;;;;;;0.00;0.00;;;22.00;99.90;;;;;;5050896;28;20587;-64
2023/08/22 04:07:30;;;;;;;0.00;0.00;;;22.00;99.90;;;;;;5051119;28;20184;-64
2023/08/22 04:09:56;;;;;;;0.40;0.40;;;22.00;99.90;;;;;;5050897;28;20231;-64
2023/08/22 04:12:21;;;;;;;0.00;0.00;;;22.00;99.90;;;;;;5050856;28;20519;-64
2023/08/22 04:14:47;;;;;;;0.00;0.00;;;21.90;99.90;;;;;;5050698;28;20181;-64
2023/08/22 04:17:12;;;;;;;0.00;0.00;;;21.90;99.90;;;;;;5050468;28;20659;-64
2023/08/22 04:19:38;;;;;;;0.10;0.10;;;21.90;99.90;;;;;;5050935;28;20177;-65
2023/08/22 04:22:04;;;;;;;0.00;0.00;;;21.90;99.90;;;;;;5050569;28;20162;-64
2023/08/22 04:24:30;;;;;;;0.00;0.00;;;21.90;99.90;;;;;;5050995;28;20181;-64
2023/08/22 04:26:56;;;;;;;0.00;0.00;;;21.90;99.90;;;;;;5050893;28;20200;-64
2023/08/22 04:29:22;;;;;;;0.32;0.32;;;21.90;99.90;;;;;;5050770;28;20169;-64
2023/08/22 04:31:48;;;;;;;0.00;0.00;;;21.90;99.90;;;;;;5051063;28;20170;-65
2023/08/22 04:34:14;;;;;;;0.00;0.00;;;21.90;99.90;;;;;;5050704;28;20205;-64
2023/08/22 04:36:39;;;;;;;0.10;0.10;;;21.90;99.90;;;;;;5051215;28;20196;-64
2023/08/22 04:39:05;;;;;;;0.00;0.00;;;21.90;99.90;;;;;;5050842;28;20212;-64
2023/08/22 04:41:31;;;;;;;0.00;0.00;;;21.90;99.90;;;;;;5050956;28;20223;-64
2023/08/22 04:43:56;;;;;;;0.00;0.00;;;21.90;99.90;;;;;;5050821;28;20173;-64
2023/08/22 04:46:22;;;;;;;0.10;0.10;;;21.90;99.90;;;;;;5050990;28;20173;-64
2023/08/22 04:48:47;;;;;;;0.00;0.00;;;21.90;99.90;;;;;;5050879;28;20271;-64
2023/08/22 04:51:13;;;;;;;0.03;0.03;;;21.90;99.90;;;;;;5050608;28;20235;-64
2023/08/22 04:53:39;;;;;;;0.00;0.00;;;21.90;99.90;;;;;;5050791;28;20213;-64
2023/08/22 04:56:04;;;;;;;0.13;0.13;;;22.00;99.90;;;;;;5050901;28;20170;-64
2023/08/22 04:58:30;;;;;;;0.20;0.20;;;22.00;99.90;;;;;;5050850;28;20550;-64
2023/08/22 05:00:55;;;;;;;0.00;0.00;;;22.00;99.90;;;;;;5050687;28;20540;-64
2023/08/22 05:03:21;;;;;;;0.10;0.00;;;21.90;99.90;;;;;;5050870;28;20636;-64
2023/08/22 05:05:47;;;;;;;0.03;0.03;;;22.00;99.90;;;;;;5050880;28;20182;-64
2023/08/22 05:08:12;;;;;;;0.00;0.00;;;22.00;99.90;;;;;;5050666;28;20205;-65
2023/08/22 05:10:38;;;;;;;0.00;0.00;;;22.10;99.90;;;;;;5050816;28;20670;-65
2023/08/22 05:13:03;;;;;;;0.00;0.00;;;22.10;99.90;;;;;;5049447;28;20225;-65
2023/08/22 05:15:29;;;;;;;0.15;0.00;;;22.10;99.90;;;;;;5053218;28;20201;-64
2023/08/22 05:17:55;;;;;;;0.10;0.10;;;22.20;99.90;;;;;;5054424;28;20181;-65
2023/08/22 05:20:20;;;;;;;0.00;0.00;;;22.40;99.90;;;;;;5054521;28;20243;-65
2023/08/22 05:22:46;;;;;;;0.00;0.00;;;22.60;99.90;;;;;;5054387;28;20174;-65
2023/08/22 05:25:12;;;;;;;0.17;0.17;;;22.80;99.90;;;;;;5054404;28;20876;-66
2023/08/22 05:27:37;;;;;;;0.00;0.00;;;23.00;99.90;;;;;;5054299;28;20185;-62
2023/08/22 05:30:06;;;;;;;0.55;0.38;;;23.20;99.90;;;;;;5052617;28;20252;-62
2023/08/22 05:32:32;;;;;;;1.15;0.20;;;23.40;99.90;;;;;;5053340;28;20182;-63
2023/08/22 05:34:58;;;;;;;0.00;0.00;;;23.50;99.90;;;;;;5054141;28;20652;-63
2023/08/22 05:37:24;;;;;;;0.00;0.00;;;23.60;99.90;;;;;;5054150;28;20260;-63
2023/08/22 05:39:50;;;;;;;0.03;0.03;;;23.70;99.90;;;;;;5053991;28;20208;-63
2023/08/22 05:42:16;;;;;;;0.10;0.10;;;23.80;99.90;;;;;;5053819;28;20606;-63
2023/08/22 05:44:42;;;;;;;0.57;0.38;;;23.80;99.90;;;;;;5054003;28;20205;-63
2023/08/22 05:47:08;;;;;;;0.10;0.10;;;23.90;99.90;;;;;;5053900;28;20192;-64
2023/08/22 05:49:34;;;;;;;0.00;0.00;;;24.10;99.90;;;;;;5053944;28;20542;-63
2023/08/22 05:52:04;;;;;;;0.28;0.28;;;24.40;99.90;;;;;;5053758;28;20182;-64
2023/08/22 05:54:30;;;;;;;0.03;0.03;;;24.80;99.90;;;;;;5053682;28;20205;-64
2023/08/22 05:56:56;;;;;;;0.00;0.00;;;25.20;99.90;;;;;;5053483;28;20323;-64
2023/08/22 05:59:23;;;;;;;0.00;0.00;;;25.50;99.90;;;;;;5053642;28;20284;-63
2023/08/22 06:01:49;;;;;;;0.00;0.00;;;25.80;99.90;;;;;;5053560;28;20295;-63
2023/08/22 06:04:16;;;;;;;0.00;0.00;;;26.00;99.90;;;;;;5053377;28;20207;-63
2023/08/22 06:06:43;;;;;;;0.00;0.00;;;26.20;99.90;;;;;;5053597;28;20542;-63
2023/08/22 06:09:08;;;;;;;0.13;0.13;;;26.50;99.90;;;;;;5053383;28;20181;-63
2023/08/22 06:11:34;;;;;;;0.00;0.00;;;26.90;99.90;;;;;;5053227;28;20177;-63
2023/08/22 06:13:59;;;;;;;0.10;0.10;;;27.20;99.90;;;;;;5053361;28;20547;-63
2023/08/22 06:16:25;;;;;;;0.00;0.00;;;27.60;99.90;;;;;;5053280;28;20213;-63
2023/08/22 06:18:50;;;;;;;0.00;0.00;;;27.90;99.90;;;;;;5053263;28;20177;-63
2023/08/22 06:21:16;;;;;;;0.28;0.28;;;28.20;99.90;;;;;;5053032;28;20165;-63
2023/08/22 06:23:41;;;;;;;0.00;0.00;;;28.40;99.90;;;;;;5053146;28;20212;-63
2023/08/22 06:26:10;;;;;;;0.00;0.00;;;28.50;99.90;;;;;;5052020;28;20181;-63
2023/08/22 06:28:35;;;;;;;0.03;0.03;;;28.90;99.90;;;;;;5052924;28;20178;-63
2023/08/22 06:31:02;;;;;;;0.00;0.00;;;29.00;99.90;;;;;;5052802;28;21010;-63
2023/08/22 06:33:28;;;;;;;0.17;0.17;;;29.40;99.90;;;;;;5052931;28;20669;-64
2023/08/22 06:35:53;;;;;;;0.00;0.00;;;30.20;99.90;;;;;;5052824;28;20173;-63
2023/08/22 06:38:19;;;;;;;0.00;0.00;;;30.60;99.90;;;;;;5052862;28;20189;-63
2023/08/22 06:40:44;;;;;;;0.05;0.05;;;31.00;99.10;;;;;;5052884;28;20173;-63
2023/08/22 06:43:10;;;;;;;0.25;0.20;;;31.60;98.30;;;;;;5052841;28;20173;-63
2023/08/22 06:45:35;;;;;;;0.00;0.00;;;32.10;97.20;;;;;;5052745;28;20181;-63
2023/08/22 06:48:01;;;;;;;0.08;0.08;;;32.60;95.90;;;;;;5052664;28;20177;-63
2023/08/22 06:50:26;;;;;;;0.00;0.00;;;32.80;95.50;;;;;;5052750;28;20180;-63
2023/08/22 06:52:52;;;;;;;0.00;0.00;;;33.00;94.50;;;;;;5052530;28;20228;-64
2023/08/22 06:55:17;;;;;;;0.00;0.00;;;32.90;94.00;;;;;;5052703;28;20184;-63
2023/08/22 06:57:43;;;;;;;0.10;0.10;;;33.10;93.80;;;;;;5052618;28;20643;-63
2023/08/22 07:00:15;;;;;;;0.00;0.00;;;33.60;93.10;;;;;;5051251;28;20185;-63
2023/08/22 07:02:42;;;;;;;0.00;0.00;;;34.10;92.40;;;;;;5052530;28;20215;-63
2023/08/22 07:05:09;;;;;;;0.00;0.00;;;34.60;91.20;;;;;;5052325;28;20231;-63
2023/08/22 07:07:35;;;;;;;0.00;0.00;;;34.50;90.80;;;;;;5052286;28;20189;-63
2023/08/22 07:10:01;;;;;;;0.00;0.00;;;34.70;90.10;;;;;;5052207;28;20180;-63
2023/08/22 07:12:26;;;;;;;0.00;0.00;;;34.30;89.10;;;;;;5052136;28;20533;-63
2023/08/22 07:14:52;;;;;;;0.00;0.00;;;34.50;89.60;;;;;;5052089;28;20903;-63
2023/08/22 07:17:17;;;;;;;0.00;0.00;;;34.60;87.90;;;;;;5052171;28;20206;-64
2023/08/22 07:19:43;;;;;;;0.00;0.00;;;34.80;87.10;;;;;;5052088;28;20180;-63
2023/08/22 07:22:08;;;;;;;0.00;0.00;;;35.20;86.40;;;;;;5052005;28;20227;-63
2023/08/22 07:24:34;;;;;;;0.00;0.00;;;35.50;83.70;;;;;;5052108;28;20717;-63
2023/08/22 07:26:59;;;;;;;0.00;0.00;;;35.80;83.40;;;;;;5052008;28;20176;-63
2023/08/22 07:29:25;;;;;;;0.00;0.00;;;36.20;80.60;;;;;;5051808;28;20331;-63
2023/08/22 07:31:51;;;;;;;0.00;0.00;;;36.10;81.20;;;;;;5051891;28;20260;-63
2023/08/22 07:34:16;;;;;;;0.80;0.10;;;36.20;80.90;;;;;;5051748;28;20247;-63
2023/08/22 07:36:42;;;;;;;0.00;0.00;;;36.40;78.80;;;;;;5051898;28;20647;-63
2023/08/22 07:39:07;;;;;;;0.00;0.00;;;36.20;78.10;;;;;;5051535;28;20180;-63
2023/08/22 07:41:32;;;;;;;0.00;0.00;;;36.20;78.50;;;;;;5051742;28;20180;-63
2023/08/22 07:43:58;;;;;;;0.10;0.00;;;36.60;78.40;;;;;;5051592;28;20498;-63
2023/08/22 07:46:23;;;;;;;0.00;0.00;;;36.90;76.70;;;;;;5051750;28;20276;-63
2023/08/22 07:48:49;;;;;;;0.00;0.00;;;37.20;76.60;;;;;;5051692;28;20173;-63
2023/08/22 07:51:15;;;;;;;0.10;0.10;;;37.20;72.90;;;;;;5051434;28;20185;-63
2023/08/22 07:53:40;;;;;;;0.00;0.00;;;36.90;75.30;;;;;;5051488;28;20204;-63
2023/08/22 07:56:06;;;;;;;0.00;0.00;;;36.80;74.00;;;;;;5051422;28;20165;-63
2023/08/22 07:58:32;;;;;;;0.00;0.00;;;37.00;73.50;;;;;;5051534;28;20177;-63
2023/08/22 08:00:57;;;;;;;0.08;0.08;;;37.20;73.50;;;;;;5051484;28;20173;-63
2023/08/22 08:03:23;;;;;;;0.00;0.00;;;37.40;72.80;;;;;;5051548;28;20168;-63
2023/08/22 08:05:48;;;;;;;0.20;0.20;;;37.70;73.50;;;;;;5051557;28;20635;-63
2023/08/22 08:08:14;;;;;;;0.00;0.00;;;38.00;71.40;;;;;;5051255;28;20828;-63
2023/08/22 08:10:40;;;;;;;0.00;0.00;;;38.00;69.10;;;;;;5051461;28;20199;-63
2023/08/22 08:13:05;;;;;;;0.10;0.10;;;37.70;69.10;;;;;;5051216;28;20857;-63
2023/08/22 08:15:31;;;;;;;0.00;0.00;;;37.50;70.00;;;;;;5051462;28;20169;-63
2023/08/22 08:17:58;;;;;;;0.00;0.00;;;37.50;71.70;;;;;;5051099;28;20169;-63
2023/08/22 08:20:24;;;;;;;0.00;0.00;;;37.40;70.50;;;;;;5051357;28;20223;-63
2023/08/22 08:22:50;;;;;;;0.10;0.10;;;37.40;70.90;;;;;;5051267;28;20259;-63
2023/08/22 08:25:15;;;;;;;0.00;0.00;;;37.70;70.10;;;;;;5051091;28;20207;-63
2023/08/22 08:27:41;;;;;;;0.00;0.00;;;38.00;69.20;;;;;;5051245;28;20283;-63
2023/08/22 08:30:10;;;;;;;0.00;0.00;;;38.00;68.60;;;;;;5051009;28;20224;-63
2023/08/22 08:32:35;;;;;;;0.00;0.00;;;37.90;68.10;;;;;;5051072;28;20230;-63
2023/08/22 08:35:01;;;;;;;0.10;0.10;;;37.50;67.20;;;;;;5049813;28;20188;-63
2023/08/22 08:37:28;;;;;;;0.00;0.00;;;37.70;68.10;;;;;;5051203;28;20180;-63
2023/08/22 08:39:53;;;;;;;0.10;0.10;;;38.00;67.00;;;;;;5050968;28;20263;-63
2023/08/22 08:42:19;;;;;;;0.32;0.03;;;37.90;66.60;;;;;;5051090;28;20252;-63
2023/08/22 08:44:44;;;;;;;0.00;0.00;;;38.00;65.50;;;;;;5051184;28;20169;-63
2023/08/22 08:47:11;;;;;;;0.00;0.00;;;37.70;66.50;;;;;;5051063;28;20882;-63
2023/08/22 08:49:38;;;;;;;0.00;0.00;;;37.30;65.50;;;;;;5052041;28;20528;-63
2023/08/22 08:52:07;;;;;;;0.00;0.00;;;37.10;66.50;;;;;;5054835;28;20187;-63
2023/08/22 08:54:33;;;;;;;0.00;0.00;;;37.10;67.70;;;;;;5054779;28;20220;-63
2023/08/22 08:56:59;;;;;;;0.00;0.00;;;37.30;67.50;;;;;;5054834;28;20176;-63
2023/08/22 08:59:25;;;;;;;0.00;0.00;;;37.40;66.00;;;;;;5054822;28;20192;-63
2023/08/22 09:01:51;;;;;;;0.00;0.00;;;37.40;66.40;;;;;;5054822;28;20181;-63
2023/08/22 09:04:17;;;;;;;0.10;0.10;;;37.70;65.40;;;;;;5054540;28;20183;-64
2023/08/22 09:06:45;;;;;;;0.40;0.40;;;37.60;64.90;;;;;;5054732;28;20184;-63
2023/08/22 09:09:12;;;;;;;0.00;0.00;;;37.50;64.40;;;;;;5054533;28;20183;-63
2023/08/22 09:11:46;;;;;;;0.10;0.10;;;37.50;65.50;;;;;;5054505;28;20551;-63
2023/08/22 09:14:12;;;;;;;0.00;0.00;;;37.50;65.70;;;;;;5054439;28;20282;-63
2023/08/22 09:16:38;;;;;;;0.00;0.00;;;37.50;64.40;;;;;;5054469;28;20639;-63
2023/08/22 09:19:06;;;;;;;0.00;0.00;;;37.50;65.30;;;;;;5054370;28;20260;-63
2023/08/22 09:21:31;;;;;;;0.00;0.00;;;37.60;62.00;;;;;;5054428;28;20632;-63
2023/08/22 09:24:10;;;;;;;0.00;0.00;;;37.60;60.30;;;;;;5054329;28;20181;-63
2023/08/22 09:26:37;;;;;;;0.00;0.00;;;37.40;60.30;;;;;;5054193;28;20163;-63
2023/08/22 09:29:06;;;;;;;0.00;0.00;;;37.40;58.90;;;;;;5054197;28;20181;-63
2023/08/22 09:31:34;;;;;;;0.00;0.00;;;37.60;58.60;;;;;;5054171;28;20184;-63
2023/08/22 09:34:12;;;;;;;0.00;0.00;;;37.70;59.50;;;;;;5054060;28;20252;-63
2023/08/22 09:36:44;;;;;;;0.00;0.00;;;37.70;60.00;;;;;;5054059;28;20632;-63
2023/08/22 09:39:13;;;;;;;0.10;0.10;;;37.90;59.40;;;;;;5054026;28;20219;-63
2023/08/22 09:41:39;;;;;;;0.00;0.00;;;38.00;59.00;;;;;;5054052;28;20592;-63
2023/08/22 09:44:06;;;;;;;0.00;0.00;;;38.00;58.90;;;;;;5053967;28;20222;-63
2023/08/22 09:46:32;;;;;;;0.00;0.00;;;38.10;60.00;;;;;;5054093;28;20176;-64
2023/08/22 09:49:00;;;;;;;0.00;0.00;;;38.20;59.00;;;;;;5053837;28;20161;-63
2023/08/22 09:51:27;;;;;;;0.00;0.00;;;38.20;61.60;;;;;;5053792;28;20238;-63
2023/08/22 09:53:59;;;;;;;0.30;0.10;;;38.20;60.40;;;;;;5053534;28;20227;-63
2023/08/22 09:56:26;;;;;;;0.10;0.10;;;38.10;57.10;;;;;;5053848;28;20185;-64
2023/08/22 09:58:52;;;;;;;0.00;0.00;;;37.80;57.80;;;;;;5053732;28;20176;-64
2023/08/22 10:01:20;;;;;;;0.10;0.10;;;37.50;58.30;;;;;;5052405;28;20173;-64
2023/08/22 10:03:50;;;;;;;0.00;0.00;;;37.20;59.30;;;;;;5053823;28;20234;-64
2023/08/22 10:06:15;;;;;;;0.08;0.08;;;37.20;59.70;;;;;;5053413;28;20237;-63
2023/08/22 10:08:42;;;;;;;0.00;0.00;;;37.20;59.70;;;;;;5053602;28;20272;-63
2023/08/22 10:11:11;;;;;;;0.10;0.00;;;37.10;60.30;;;;;;5053415;28;20200;-63
2023/08/22 10:13:37;;;;;;;0.00;0.00;;;37.00;59.10;;;;;;5053327;28;20244;-63
2023/08/22 10:16:03;;;;;;;0.00;0.00;;;37.20;59.70;;;;;;5053246;28;20260;-63
2023/08/22 10:18:29;;;;;;;0.10;0.10;;;37.40;59.80;;;;;;5053407;28;20264;-63
2023/08/22 10:20:56;;;;;;;0.00;0.00;;;37.40;59.40;;;;;;5053154;28;20165;-63
2023/08/22 10:23:52;;;;;;;0.00;0.00;;;37.10;59.60;;;;;;5053246;28;20176;-63
2023/08/22 10:26:19;;;;;;;0.00;0.00;;;36.90;58.00;;;;;;5053211;28;20200;-64
2023/08/22 10:29:05;;;;;;;0.00;0.00;;;36.90;58.20;;;;;;5053288;28;20260;-63
2023/08/22 10:31:30;;;;;;;0.00;0.00;;;37.10;59.10;;;;;;5053008;28;20648;-64
2023/08/22 10:34:03;;;;;;;0.10;0.10;;;37.10;58.60;;;;;;5052758;28;20220;-64
2023/08/22 10:36:29;;;;;;;0.00;0.00;;;36.80;59.40;;;;;;5052953;28;20679;-63
2023/08/22 10:39:00;;;;;;;0.00;0.00;;;36.70;59.10;;;;;;5052832;28;20223;-64
2023/08/22 10:41:46;;;;;;;0.00;0.00;;;36.70;59.30;;;;;;5053028;28;20268;-63
2023/08/22 10:44:19;;;;;;;0.17;0.00;;;36.70;59.40;;;;;;5052900;28;20770;-64
2023/08/22 10:47:04;;;;;;;0.00;0.00;;;36.60;60.80;;;;;;5052839;28;20197;-63
2023/08/22 10:49:31;;;;;;;0.00;0.00;;;36.70;61.00;;;;;;5052939;28;20177;-63
2023/08/22 10:52:10;;;;;;;0.00;0.00;;;36.90;60.40;;;;;;5052590;28;20271;-63
2023/08/22 10:54:57;;;;;;;0.00;0.00;;;37.20;59.70;;;;;;5052556;28;20209;-63
2023/08/22 10:57:23;;;;;;;0.00;0.00;;;37.20;59.10;;;;;;5052814;28;20264;-63
2023/08/22 11:00:21;;;;;;;0.10;0.10;;;36.90;59.90;;;;;;5052545;28;20327;-63
2023/08/22 11:02:59;;;;;;;0.00;0.00;;;36.60;61.10;;;;;;5052256;28;20283;-63
2023/08/22 11:05:26;;;;;;;0.00;0.00;;;36.20;60.10;;;;;;5052580;28;20263;-63
2023/08/22 11:07:52;;;;;;;0.22;0.10;;;36.20;61.10;;;;;;5052304;28;20602;-63
2023/08/22 11:10:20;;;;;;;0.00;0.00;;;36.20;63.10;;;;;;5052300;28;20250;-63
2023/08/22 11:12:46;;;;;;;0.00;0.00;;;36.50;61.30;;;;;;5051726;28;20212;-63
2023/08/22 11:15:13;;;;;;;0.00;0.00;;;36.70;60.50;;;;;;5052179;28;20321;-63
2023/08/22 11:17:40;;;;;;;0.00;0.00;;;36.90;60.90;;;;;;5052063;28;20172;-63
2023/08/22 11:20:10;;;;;;;0.00;0.00;;;37.00;59.50;;;;;;5052117;28;20785;-63
2023/08/22 11:22:36;;;;;;;0.00;0.00;;;37.00;58.40;;;;;;5052031;28;20180;-63
2023/08/22 11:25:04;;;;;;;0.00;0.00;;;36.90;58.30;;;;;;5052091;28;20199;-63
2023/08/22 11:27:29;;;;;;;0.00;0.00;;;36.60;59.10;;;;;;5052270;28;20168;-63
2023/08/22 11:29:55;;;;;;;0.00;0.00;;;36.40;60.00;;;;;;5051704;28;20315;-63
2023/08/22 11:32:26;;;;;;;0.00;0.00;;;36.20;61.00;;;;;;5052014;28;20252;-63
2023/08/22 11:34:54;;;;;;;0.00;0.00;;;36.40;61.00;;;;;;5051963;28;20212;-63
2023/08/22 11:37:20;;;;;;;0.00;0.00;;;36.40;59.90;;;;;;5051900;28;20260;-63
2023/08/22 11:39:49;;;;;;;0.00;0.00;;;36.60;61.20;;;;;;5051916;28;20235;-63
2023/08/22 11:42:16;;;;;;;0.20;0.20;;;36.80;60.60;;;;;;5051672;28;20177;-63
2023/08/22 11:45:03;;;;;;;0.00;0.00;;;37.10;60.50;;;;;;5051730;28;20173;-63
2023/08/22 11:47:45;;;;;;;0.00;0.00;;;37.20;59.40;;;;;;5051799;28;20168;-64
2023/08/22 11:50:18;;;;;;;0.00;0.00;;;37.20;59.70;;;;;;5051671;28;20180;-63
2023/08/22 11:52:44;;;;;;;0.00;0.00;;;37.00;59.70;;;;;;5051552;28;20684;-63
2023/08/22 11:55:13;;;;;;;0.00;0.00;;;36.70;59.40;;;;;;5051609;28;20184;-63
2023/08/22 11:57:41;;;;;;;0.00;0.00;;;36.50;59.60;;;;;;5051576;28;20173;-64
2023/08/22 12:00:09;;;;;;;0.20;0.20;;;36.50;60.70;;;;;;5051516;28;20181;-64
2023/08/22 12:02:36;;;;;;;0.00;0.00;;;36.70;61.60;;;;;;5051380;28;20173;-65
2023/08/22 12:05:02;;;;;;;0.00;0.00;;;36.70;60.30;;;;;;5051306;28;20172;-63
2023/08/22 12:07:28;;;;;;;0.10;0.10;;;36.60;60.70;;;;;;5051604;28;20192;-63
2023/08/22 12:10:12;;;;;;;0.00;0.00;;;36.40;59.70;;;;;;5051205;28;20181;-63
2023/08/22 12:12:38;;;;;;;0.00;0.00;;;36.00;60.00;;;;;;5051402;28;20206;-63
2023/08/22 12:15:05;;;;;;;0.00;0.00;;;36.00;62.10;;;;;;5051313;28;20255;-63
2023/08/22 12:17:31;;;;;;;0.00;0.00;;;36.10;61.60;;;;;;5051230;28;20177;-63
2023/08/22 12:19:56;;;;;;;0.00;0.00;;;36.10;61.30;;;;;;5051158;28;20268;-63
2023/08/22 12:22:22;;;;;;;0.45;0.10;;;36.10;61.50;;;;;;5051436;28;20184;-63
2023/08/22 12:24:48;;;;;;;0.00;0.00;;;36.10;62.00;;;;;;5052898;28;20169;-63
2023/08/22 12:27:14;;;;;;;0.00;0.00;;;36.10;61.20;;;;;;5055305;28;20743;-63
2023/08/22 12:29:41;;;;;;;0.00;0.00;;;36.10;61.90;;;;;;5055212;28;20303;-63
2023/08/22 12:32:06;;;;;;;0.00;0.00;;;35.90;61.20;;;;;;5055293;28;20226;-63
2023/08/22 12:34:32;;;;;;;0.00;0.00;;;35.60;61.20;;;;;;5055266;28;20216;-63
2023/08/22 12:36:58;;;;;;;0.00;0.00;;;35.50;62.60;;;;;;5055349;28;20569;-63
2023/08/22 12:39:24;;;;;;;0.00;0.00;;;35.30;62.20;;;;;;5055223;28;20250;-62
2023/08/22 12:41:49;;;;;;;0.00;0.00;;;35.20;62.40;;;;;;5055183;28;20176;-63
2023/08/22 12:44:15;;;;;;;0.00;0.00;;;35.10;63.20;;;;;;5054992;28;20570;-63
2023/08/22 12:46:41;;;;;;;0.00;0.00;;;35.20;63.40;;;;;;5055161;28;20181;-63